Aviation Digital Data Service (ADDS)

Output produced by METARs form (0119 UTC 20 April 2014)
found at http://www.aviationweather.gov/adds/metars/
 
METAR text: KCMI 200053Z 11008KT 10SM CLR 15/03 A3021 RMK AO2 SLP231 T01500033
Conditions at: KCMI (CHAMPAIGN/URBANA, IL, US) observed 0053 UTC 20 April 2014
Temperature: 15.0°C (59°F)
Dewpoint: 3.3°C (38°F) [RH = 45%]
Pressure (altimeter): 30.21 inches Hg (1023.1 mb)
[Sea-level pressure: 1023.1 mb]
Winds: from the ESE (110 degrees) at 9 MPH (8 knots; 4.2 m/s)
Visibility: 10 or more miles (16+ km)
Ceiling: at least 12,000 feet AGL
Clouds: sky clear below 12,000 feet AGL
Weather: no significant weather observed at this time

METAR text: KCMI 192353Z 11007KT 10SM CLR 19/02 A3021 RMK AO2 SLP232 T01940022 10233 20194 55007
Conditions at: KCMI (CHAMPAIGN/URBANA, IL, US) observed 2353 UTC 19 April 2014
Temperature: 19.4°C (67°F)
Dewpoint: 2.2°C (36°F) [RH = 32%]
Pressure (altimeter): 30.21 inches Hg (1023.1 mb)
[Sea-level pressure: 1023.2 mb]
Winds: from the ESE (110 degrees) at 8 MPH (7 knots; 3.6 m/s)
Visibility: 10 or more miles (16+ km)
Ceiling: at least 12,000 feet AGL
Clouds: sky clear below 12,000 feet AGL
Weather: no significant weather observed at this time

Forecast for: KCMI (CHAMPAIGN/URBANA, IL, US)
Text: KCMI 192320Z 2000/2024 13008KT P6SM SCT250
Forecast period: 0000 to 1400 UTC 20 April 2014
Forecast type: FROM: standard forecast or significant change
Winds: from the SE (130 degrees) at 9 MPH (8 knots; 4.2 m/s)
Visibility: 6 or more miles (10+ km)
Clouds: scattered clouds at 25000 feet AGL
Weather: no significant weather forecast for this period
Text: FM201400 17010KT P6SM SCT250
Forecast period: 1400 UTC 20 April 2014 to 0000 UTC 21 April 2014
Forecast type: FROM: standard forecast or significant change
Winds: from the S (170 degrees) at 12 MPH (10 knots; 5.2 m/s)
Visibility: 6 or more miles (10+ km)
Clouds: scattered clouds at 25000 feet AGL
Weather: no significant weather forecast for this period